createdAt,value
2018-07-31T00:03:00.572Z,101267.64
2018-07-31T00:08:02.758Z,101260.27
2018-07-31T00:13:04.951Z,101273.91
2018-07-31T00:18:07.114Z,101267.64
2018-07-31T00:23:09.234Z,101265.59
2018-07-31T00:28:11.417Z,101261.75
2018-07-31T00:33:13.569Z,101266.18
2018-07-31T00:38:15.761Z,101272.03
2018-07-31T00:43:17.941Z,101265.98
2018-07-31T00:48:20.125Z,101268.22
2018-07-31T00:53:22.306Z,101257.40
2018-07-31T00:58:24.430Z,101256.70
2018-07-31T01:03:26.558Z,101248.97
2018-07-31T01:08:28.706Z,101247.43
2018-07-31T01:13:30.878Z,101233.55
2018-07-31T01:18:33.034Z,101234.81
2018-07-31T01:23:35.165Z,101226.73
2018-07-31T01:28:37.342Z,101223.08
2018-07-31T01:33:39.482Z,101235.25
2018-07-31T01:38:41.662Z,101221.03
2018-07-31T01:43:43.794Z,101220.70
2018-07-31T01:48:45.910Z,101223.03
2018-07-31T01:53:48.058Z,101215.81
2018-07-31T01:58:50.183Z,101219.48
2018-07-31T02:03:52.304Z,101221.41
2018-07-31T02:08:55.124Z,101220.69
2018-07-31T02:13:57.247Z,101222.84
2018-07-31T02:18:59.396Z,101212.04
2018-07-31T02:24:01.571Z,101214.92
2018-07-31T02:29:03.782Z,101210.53
2018-07-31T02:34:06.070Z,101203.81
2018-07-31T02:39:08.210Z,101195.34
2018-07-31T02:44:10.355Z,101196.74
2018-07-31T02:49:12.543Z,101179.94
2018-07-31T02:54:14.667Z,101186.00
2018-07-31T02:59:16.811Z,101185.83
2018-07-31T03:04:18.940Z,101192.05
2018-07-31T03:09:21.059Z,101184.30
2018-07-31T03:14:23.182Z,101184.30
2018-07-31T03:19:25.333Z,101181.05
2018-07-31T03:24:27.462Z,101166.30
2018-07-31T03:29:29.632Z,101167.97
2018-07-31T03:34:31.775Z,101172.64
2018-07-31T03:39:33.913Z,101170.98
2018-07-31T03:44:36.045Z,101163.63
2018-07-31T03:49:38.169Z,101167.03
2018-07-31T03:54:40.311Z,101167.86
2018-07-31T03:59:42.638Z,101171.77
2018-07-31T04:04:44.828Z,101171.48
2018-07-31T04:09:46.969Z,101166.41
2018-07-31T04:14:49.095Z,101160.38
2018-07-31T04:19:51.231Z,101168.13
2018-07-31T04:24:53.590Z,101171.55
2018-07-31T04:29:55.770Z,101163.66
2018-07-31T04:34:57.904Z,101159.58
2018-07-31T04:40:00.034Z,101155.44
2018-07-31T04:45:02.262Z,101157.56
2018-07-31T04:50:04.427Z,101156.38
2018-07-31T04:55:06.611Z,101161.91
2018-07-31T05:00:09.004Z,101152.39
2018-07-31T05:05:11.176Z,101142.23
2018-07-31T05:10:13.332Z,101155.72
2018-07-31T05:15:15.485Z,101148.90
2018-07-31T05:20:17.654Z,101146.98
2018-07-31T05:25:19.859Z,101141.86
2018-07-31T05:30:22.047Z,101143.80
2018-07-31T05:35:24.182Z,101151.73
2018-07-31T05:40:26.327Z,101154.00
2018-07-31T05:45:28.489Z,101154.16
2018-07-31T05:50:30.624Z,101143.30
2018-07-31T05:55:32.761Z,101161.64
2018-07-31T06:00:34.914Z,101166.75
2018-07-31T06:05:37.061Z,101169.31
2018-07-31T06:10:39.223Z,101169.18
2018-07-31T06:15:41.339Z,101169.44
2018-07-31T06:20:43.516Z,101175.86
2018-07-31T06:25:45.647Z,101174.35
2018-07-31T06:30:47.859Z,101167.62
2018-07-31T06:35:50.041Z,101183.33
2018-07-31T06:40:52.203Z,101189.41
2018-07-31T06:45:54.423Z,101191.66
2018-07-31T06:50:56.605Z,101189.97
2018-07-31T06:55:58.770Z,101178.89
2018-07-31T07:01:01.001Z,101184.20
2018-07-31T07:06:03.243Z,101213.16
2018-07-31T07:11:05.457Z,101184.35
2018-07-31T07:16:07.641Z,101182.00
2018-07-31T07:21:09.834Z,101181.09
2018-07-31T07:26:12.009Z,101179.13
2018-07-31T07:31:14.293Z,101167.91
2018-07-31T07:36:16.460Z,101161.06
2018-07-31T07:41:18.659Z,101163.63
2018-07-31T07:46:20.967Z,101163.14
2018-07-31T07:51:23.182Z,101167.64
2018-07-31T07:56:25.539Z,101160.30
2018-07-31T08:01:27.785Z,101157.82
2018-07-31T08:06:29.964Z,101166.52
2018-07-31T08:11:32.168Z,101157.06
2018-07-31T08:16:35.179Z,101171.91
2018-07-31T08:21:37.442Z,101174.22
2018-07-31T08:26:39.648Z,101168.53
2018-07-31T08:31:41.932Z,101165.11
2018-07-31T08:36:44.133Z,101165.37
2018-07-31T08:41:46.373Z,101165.22
2018-07-31T08:46:48.572Z,101170.88
2018-07-31T08:51:50.773Z,101167.91
2018-07-31T08:56:53.242Z,101172.18
2018-07-31T09:01:55.431Z,101169.73
2018-07-31T09:06:57.616Z,101162.16
2018-07-31T09:11:59.809Z,101158.48
2018-07-31T09:17:02.017Z,101166.70
2018-07-31T09:22:04.182Z,101161.15
2018-07-31T09:27:07.682Z,101156.58
2018-07-31T09:32:09.926Z,101150.70
2018-07-31T09:37:12.102Z,101150.66
2018-07-31T09:42:14.310Z,101145.11
2018-07-31T09:47:16.511Z,101154.13
2018-07-31T09:52:18.689Z,101138.16
2018-07-31T09:57:20.874Z,101143.55
2018-07-31T10:02:23.079Z,101136.58
2018-07-31T10:07:25.304Z,101132.40
2018-07-31T10:12:27.552Z,101132.26
2018-07-31T10:17:29.798Z,101132.98
2018-07-31T10:22:38.850Z,101135.27
2018-07-31T10:27:41.037Z,101129.09
2018-07-31T10:32:43.254Z,101139.02
2018-07-31T10:37:45.480Z,101133.20
2018-07-31T10:42:47.692Z,101134.67
2018-07-31T10:47:49.878Z,101132.59
2018-07-31T10:52:52.089Z,101131.22
2018-07-31T10:57:54.393Z,101119.62
2018-07-31T11:02:56.620Z,101135.47
2018-07-31T11:07:58.820Z,101133.37
2018-07-31T11:13:01.001Z,101128.99
2018-07-31T11:18:03.199Z,101124.16
2018-07-31T11:23:05.453Z,101128.59
2018-07-31T11:28:08.261Z,101119.70
2018-07-31T11:33:10.592Z,101116.08
2018-07-31T11:38:13.355Z,101115.30
2018-07-31T11:43:15.624Z,101109.91
2018-07-31T11:48:17.846Z,101107.23
2018-07-31T11:53:20.054Z,101111.18
2018-07-31T11:58:22.282Z,101115.13
2018-07-31T12:03:24.470Z,101115.13
2018-07-31T12:08:27.135Z,101120.03
2018-07-31T12:13:29.526Z,101117.17
2018-07-31T12:18:31.751Z,101113.25
2018-07-31T12:23:33.926Z,101110.61
2018-07-31T12:28:36.143Z,101116.13
2018-07-31T12:33:38.323Z,101131.16
2018-07-31T12:38:40.581Z,101124.16
2018-07-31T12:43:42.775Z,101127.25
2018-07-31T12:48:45.031Z,101140.67
2018-07-31T12:53:47.229Z,101145.33
2018-07-31T12:58:49.510Z,101139.56
2018-07-31T13:03:52.081Z,101130.23
2018-07-31T13:08:54.252Z,101122.30
2018-07-31T13:13:56.434Z,101124.64
2018-07-31T13:18:58.998Z,101121.92
2018-07-31T13:24:01.127Z,101117.79
2018-07-31T13:29:03.344Z,101121.98
2018-07-31T13:34:05.593Z,101128.88
2018-07-31T13:39:08.694Z,101132.86
2018-07-31T13:44:11.049Z,101123.34
2018-07-31T13:49:13.150Z,101130.48
2018-07-31T13:54:15.336Z,101121.73
2018-07-31T13:59:17.580Z,101121.66
2018-07-31T14:04:19.814Z,101130.98
2018-07-31T14:09:22.022Z,101136.59
2018-07-31T14:14:24.230Z,100966.03
2018-07-31T14:19:26.403Z,101132.46
2018-07-31T14:24:28.647Z,101128.69
2018-07-31T14:29:30.822Z,101124.05
2018-07-31T14:34:35.139Z,101124.74
2018-07-31T14:39:37.363Z,101143.87
2018-07-31T14:44:39.569Z,101140.55
2018-07-31T14:49:41.749Z,101141.34
2018-07-31T14:54:43.952Z,101149.84
2018-07-31T14:59:46.151Z,101134.69
2018-07-31T15:04:48.354Z,101138.94
2018-07-31T15:09:50.569Z,101137.30
2018-07-31T15:14:52.740Z,101138.48
2018-07-31T15:19:54.946Z,101137.00
2018-07-31T15:24:57.157Z,101144.44
2018-07-31T15:29:59.373Z,101160.17
2018-07-31T15:35:01.621Z,101153.77
2018-07-31T15:40:04.173Z,101156.45
2018-07-31T15:45:06.395Z,101168.52
2018-07-31T15:50:08.613Z,101151.47
2018-07-31T15:55:10.847Z,101168.05
2018-07-31T16:00:13.131Z,101163.39
2018-07-31T16:05:15.315Z,101168.87
2018-07-31T16:10:17.515Z,101173.70
2018-07-31T16:15:19.740Z,101185.89
2018-07-31T16:20:22.048Z,101179.81
2018-07-31T16:25:24.235Z,101174.77
2018-07-31T16:30:26.431Z,101180.28
2018-07-31T16:35:28.893Z,101185.64
2018-07-31T16:40:31.131Z,101196.10
2018-07-31T16:45:33.371Z,101193.28
2018-07-31T16:50:35.558Z,101200.30
2018-07-31T16:55:37.834Z,101212.77
2018-07-31T17:00:40.644Z,101216.48
2018-07-31T17:05:42.853Z,101221.19
2018-07-31T17:10:45.096Z,101230.53
2018-07-31T17:15:47.378Z,101235.98
2018-07-31T17:20:49.648Z,101242.58
2018-07-31T17:25:51.857Z,101256.02
2018-07-31T17:30:54.085Z,101272.45
2018-07-31T17:35:56.428Z,101279.25
2018-07-31T17:40:58.617Z,101292.04
2018-07-31T17:46:00.865Z,101299.70
2018-07-31T17:51:03.067Z,101314.86
2018-07-31T17:56:05.368Z,101324.05
2018-07-31T18:01:07.625Z,101336.83
2018-07-31T18:06:09.850Z,101337.02
2018-07-31T18:11:12.090Z,101346.88
2018-07-31T18:16:14.392Z,101354.58
2018-07-31T18:21:16.624Z,101360.67
2018-07-31T18:26:18.915Z,101364.48
2018-07-31T18:31:21.241Z,101368.63
2018-07-31T18:36:23.555Z,101371.16
2018-07-31T18:41:26.481Z,101375.55
2018-07-31T18:46:28.619Z,101393.31
2018-07-31T18:51:30.824Z,101399.56
2018-07-31T18:56:33.105Z,101411.20
2018-07-31T19:01:35.379Z,101430.73
2018-07-31T19:06:37.563Z,101436.71
2018-07-31T19:11:40.968Z,101442.92
2018-07-31T19:16:43.144Z,101447.98
2018-07-31T19:21:45.314Z,101453.91
2018-07-31T19:26:47.522Z,101457.59
2018-07-31T19:31:49.751Z,101463.08
2018-07-31T19:36:52.011Z,101474.26
2018-07-31T19:41:54.389Z,101482.66
2018-07-31T21:39:12.974Z,101595.13
2018-07-31T21:44:15.245Z,101601.47
2018-07-31T21:49:17.432Z,101599.79
2018-07-31T21:54:19.624Z,101598.39
2018-07-31T21:59:21.897Z,101604.78
2018-07-31T22:04:24.132Z,101595.83
2018-07-31T22:09:29.686Z,101614.58
2018-07-31T22:14:31.919Z,101620.62
2018-07-31T22:19:34.240Z,101624.17
2018-07-31T22:24:36.451Z,101623.51
2018-07-31T22:29:38.658Z,101629.23
2018-07-31T22:34:40.823Z,101628.52
2018-07-31T22:39:43.034Z,101633.30
2018-07-31T22:44:45.293Z,101631.62
2018-07-31T22:49:47.514Z,101643.95
2018-07-31T22:54:49.692Z,101640.93
2018-07-31T22:59:51.895Z,101640.88
2018-07-31T23:04:54.069Z,101636.66
2018-07-31T23:09:56.744Z,101636.09
2018-07-31T23:14:59.958Z,101642.24
2018-07-31T23:20:03.353Z,101651.69
2018-07-31T23:25:06.171Z,101651.64
2018-07-31T23:30:08.742Z,101643.92
2018-07-31T23:35:10.951Z,101638.02
2018-07-31T23:40:13.130Z,101646.02
2018-07-31T23:45:15.323Z,101670.95
2018-07-31T23:50:17.515Z,101662.23
2018-07-31T23:55:19.891Z,101660.64
